createdAt,value
2022-09-12T00:02:04.440Z,1.70
2022-09-12T00:04:31.991Z,1.52
2022-09-12T00:06:59.285Z,1.70
2022-09-12T00:09:26.699Z,1.60
2022-09-12T00:11:54.384Z,1.57
2022-09-12T00:14:21.748Z,1.50
2022-09-12T00:16:49.211Z,1.67
2022-09-12T00:19:16.634Z,1.45
2022-09-12T00:21:43.966Z,1.60
2022-09-12T00:24:11.734Z,1.40
2022-09-12T00:26:39.226Z,1.80
2022-09-12T00:29:06.667Z,1.90
2022-09-12T00:31:34.197Z,1.65
2022-09-12T00:34:01.729Z,2.00
2022-09-12T00:36:29.588Z,1.80
2022-09-12T00:38:57.028Z,1.75
2022-09-12T00:41:26.355Z,1.80
2022-09-12T00:43:59.296Z,1.83
2022-09-12T00:46:38.215Z,1.80
2022-09-12T00:49:19.445Z,1.80
2022-09-12T00:51:55.987Z,1.60
2022-09-12T00:54:26.348Z,1.88
2022-09-12T00:56:55.215Z,1.80
2022-09-12T00:59:25.461Z,2.10
2022-09-12T01:01:52.916Z,2.00
2022-09-12T01:04:21.517Z,1.90
2022-09-12T01:06:48.944Z,2.00
2022-09-12T01:09:18.295Z,2.30
2022-09-12T01:11:47.102Z,2.22
2022-09-12T01:14:15.183Z,2.10
2022-09-12T01:16:42.578Z,2.13
2022-09-12T01:19:40.906Z,2.15
2022-09-12T01:22:35.847Z,2.28
2022-09-12T01:25:18.347Z,2.00
2022-09-12T01:28:27.816Z,2.20
2022-09-12T01:31:07.209Z,2.17
2022-09-12T01:34:15.886Z,2.35
2022-09-12T01:36:51.296Z,2.55
2022-09-12T01:39:24.627Z,2.10
2022-09-12T01:42:13.846Z,2.20
2022-09-12T01:44:56.260Z,2.17
2022-09-12T01:47:34.300Z,2.22
2022-09-12T01:50:18.850Z,2.20
2022-09-12T01:53:00.208Z,2.25
2022-09-12T01:55:33.888Z,2.10
2022-09-12T01:58:04.773Z,2.13
2022-09-12T02:00:34.924Z,2.22
2022-09-12T02:03:12.733Z,2.47
2022-09-12T02:05:49.291Z,2.08
2022-09-12T02:08:23.214Z,2.43
2022-09-12T02:10:56.703Z,2.20
2022-09-12T02:13:27.516Z,2.25
2022-09-12T02:15:58.400Z,2.40
2022-09-12T02:18:26.047Z,2.25
2022-09-12T02:20:53.329Z,4.07
2022-09-12T02:23:22.833Z,2.65
2022-09-12T02:25:52.906Z,2.17
2022-09-12T02:28:24.084Z,2.58
2022-09-12T02:30:58.270Z,2.42
2022-09-12T02:33:33.352Z,2.63
2022-09-12T02:36:15.544Z,2.47
2022-09-12T02:38:46.490Z,2.30
2022-09-12T02:41:15.038Z,2.65
2022-09-12T02:43:42.374Z,2.45
2022-09-12T02:46:12.576Z,2.43
2022-09-12T02:48:41.641Z,2.60
2022-09-12T02:51:09.437Z,2.50
2022-09-12T02:53:36.795Z,2.30
2022-09-12T02:56:05.893Z,2.70
2022-09-12T02:58:33.233Z,2.57
2022-09-12T03:01:07.873Z,2.90
2022-09-12T03:03:47.563Z,2.85
2022-09-12T03:06:33.444Z,2.42
2022-09-12T03:09:37.855Z,2.20
2022-09-12T03:12:14.097Z,2.70
2022-09-12T03:15:03.976Z,2.67
2022-09-12T03:18:00.634Z,2.60
2022-09-12T03:20:40.123Z,2.88
2022-09-12T03:23:19.594Z,2.65
2022-09-12T03:25:54.271Z,2.80
2022-09-12T03:28:21.549Z,2.72
2022-09-12T03:30:49.352Z,2.72
2022-09-12T03:33:21.502Z,2.90
2022-09-12T03:35:48.906Z,2.90
2022-09-12T03:38:16.437Z,2.93
2022-09-12T03:40:43.736Z,2.60
2022-09-12T03:43:11.118Z,2.65
2022-09-12T03:45:38.481Z,2.70
2022-09-12T03:48:06.310Z,2.90
2022-09-12T03:50:34.075Z,2.73
2022-09-12T03:53:02.240Z,3.13
2022-09-12T03:55:29.569Z,3.10
2022-09-12T03:57:56.900Z,2.60
2022-09-12T04:00:24.332Z,2.70
2022-09-12T04:02:57.958Z,2.90
2022-09-12T04:05:25.369Z,2.85
2022-09-12T04:07:52.787Z,2.60
2022-09-12T04:10:20.113Z,2.83
2022-09-12T04:12:47.450Z,2.80
2022-09-12T04:15:14.784Z,2.90
2022-09-12T04:17:42.100Z,3.28
2022-09-12T04:20:09.494Z,2.80
2022-09-12T04:22:36.764Z,3.10
2022-09-12T04:25:04.231Z,3.20
2022-09-12T04:27:31.498Z,3.50
2022-09-12T04:29:58.924Z,2.92
2022-09-12T04:32:26.118Z,3.40
2022-09-12T04:34:53.434Z,3.53
2022-09-12T04:37:21.353Z,3.40
2022-09-12T04:39:49.649Z,2.77
2022-09-12T04:42:17.284Z,3.22
2022-09-12T04:44:44.596Z,3.13
2022-09-12T04:47:12.069Z,3.28
2022-09-12T04:49:39.569Z,3.15
2022-09-12T04:52:08.384Z,2.90
2022-09-12T04:54:36.107Z,3.08
2022-09-12T04:57:03.659Z,3.03
2022-09-12T04:59:35.237Z,3.33
2022-09-12T05:02:03.670Z,3.10
2022-09-12T05:04:32.676Z,2.90
2022-09-12T05:07:00.241Z,3.50
2022-09-12T05:09:28.474Z,3.53
2022-09-12T05:12:05.058Z,3.53
2022-09-12T05:14:33.702Z,3.15
2022-09-12T05:17:01.998Z,3.50
2022-09-12T05:19:30.440Z,3.80
2022-09-12T05:21:59.528Z,3.50
2022-09-12T05:24:27.453Z,4.38
2022-09-12T05:26:55.701Z,3.80
2022-09-12T05:29:25.283Z,3.73
2022-09-12T05:31:53.489Z,3.90
2022-09-12T05:34:21.475Z,4.10
2022-09-12T05:36:49.369Z,3.88
2022-09-12T05:39:17.000Z,3.63
2022-09-12T05:41:45.122Z,3.57
2022-09-12T05:44:12.940Z,3.85
2022-09-12T05:46:42.444Z,3.97
2022-09-12T05:49:12.774Z,3.40
2022-09-12T05:51:41.944Z,3.28
2022-09-12T05:54:10.417Z,3.60
2022-09-12T05:56:39.823Z,3.40
2022-09-12T05:59:12.365Z,3.00
2022-09-12T06:01:40.120Z,3.47
2022-09-12T06:04:10.839Z,4.07
2022-09-12T06:06:42.560Z,3.40
2022-09-12T06:09:10.914Z,3.25
2022-09-12T06:11:40.942Z,3.35
2022-09-12T06:14:08.926Z,2.90
2022-09-12T06:16:37.584Z,3.15
2022-09-12T06:19:07.422Z,2.93
2022-09-12T06:21:35.667Z,3.15
2022-09-12T06:24:03.186Z,3.10
2022-09-12T06:26:30.809Z,2.72
2022-09-12T06:28:59.798Z,3.10
2022-09-12T06:31:31.947Z,3.07
2022-09-12T06:34:04.071Z,2.90
2022-09-12T06:36:33.157Z,2.70
2022-09-12T06:39:02.144Z,2.85
2022-09-12T06:41:29.898Z,2.90
2022-09-12T06:43:57.634Z,2.77
2022-09-12T06:46:25.267Z,2.80
2022-09-12T06:48:52.800Z,2.65
2022-09-12T06:51:21.754Z,2.95
2022-09-12T06:53:49.312Z,2.92
2022-09-12T06:56:19.337Z,2.50
2022-09-12T06:58:48.397Z,2.88
2022-09-12T07:01:20.952Z,3.00
2022-09-12T07:03:53.541Z,2.53
2022-09-12T07:06:22.399Z,2.70
2022-09-12T07:08:51.602Z,2.70
2022-09-12T07:11:34.415Z,2.63
2022-09-12T07:14:07.053Z,3.20
2022-09-12T07:16:37.954Z,2.80
2022-09-12T07:19:07.375Z,2.80
2022-09-12T07:21:40.321Z,2.87
2022-09-12T07:24:13.169Z,3.08
2022-09-12T07:26:40.763Z,3.10
2022-09-12T07:29:35.273Z,2.72
2022-09-12T07:31:58.299Z,3.13
2022-09-12T07:34:26.654Z,2.97
2022-09-12T07:36:55.235Z,2.55
2022-09-12T07:39:22.730Z,3.20
2022-09-12T07:41:51.562Z,3.10
2022-09-12T07:44:19.655Z,2.58
2022-09-12T07:46:54.825Z,2.40
2022-09-12T07:49:22.756Z,2.38
2022-09-12T07:51:50.847Z,2.88
2022-09-12T07:54:18.540Z,2.65
2022-09-12T07:56:46.387Z,2.60
2022-09-12T07:59:21.543Z,2.40
2022-09-12T08:01:57.883Z,2.40
2022-09-12T08:04:25.748Z,2.65
2022-09-12T08:06:53.614Z,2.35
2022-09-12T08:09:21.734Z,2.20
2022-09-12T08:11:50.241Z,2.30
2022-09-12T08:14:18.556Z,2.40
2022-09-12T08:16:48.473Z,2.67
2022-09-12T08:19:15.903Z,2.63
2022-09-12T08:21:43.267Z,2.40
2022-09-12T08:24:11.717Z,2.60
2022-09-12T08:26:39.083Z,2.20
2022-09-12T08:29:06.458Z,2.45
2022-09-12T08:31:36.836Z,2.20
2022-09-12T08:34:05.632Z,1.75
2022-09-12T08:36:33.533Z,2.10
2022-09-12T08:39:02.631Z,1.98
2022-09-12T08:41:32.732Z,1.73
2022-09-12T08:44:19.264Z,2.17
2022-09-12T08:47:09.265Z,2.00
2022-09-12T08:49:42.351Z,2.10
2022-09-12T08:52:32.705Z,1.90
2022-09-12T08:55:01.956Z,2.03
2022-09-12T08:57:29.690Z,1.70
2022-09-12T08:59:57.286Z,1.92
2022-09-12T09:02:49.413Z,2.13
2022-09-12T09:05:22.745Z,1.92
2022-09-12T09:08:32.526Z,2.00
2022-09-12T09:11:46.700Z,1.98
2022-09-12T09:14:50.573Z,1.73
2022-09-12T09:17:55.628Z,1.98
2022-09-12T09:20:49.705Z,2.00
2022-09-12T09:23:34.099Z,2.00
2022-09-12T09:26:14.919Z,1.90
2022-09-12T09:28:53.358Z,2.28
2022-09-12T09:31:25.530Z,2.00
2022-09-12T09:33:55.558Z,1.97
2022-09-12T09:36:44.201Z,1.90
2022-09-12T09:39:29.549Z,2.08
2022-09-12T09:42:16.343Z,2.22
2022-09-12T09:44:47.027Z,2.05
2022-09-12T09:47:15.354Z,2.37
2022-09-12T09:49:43.321Z,1.98
2022-09-12T09:52:12.224Z,2.13
2022-09-12T09:54:44.544Z,2.30
2022-09-12T09:57:53.396Z,2.10
2022-09-12T10:00:42.366Z,2.00
2022-09-12T10:03:15.462Z,2.30
2022-09-12T10:05:51.681Z,2.00
2022-09-12T10:08:26.874Z,1.98
2022-09-12T10:11:08.910Z,2.10
2022-09-12T10:13:43.667Z,2.10
2022-09-12T10:16:54.595Z,2.25
2022-09-12T10:19:27.905Z,1.92
2022-09-12T10:21:56.849Z,2.38
2022-09-12T10:24:31.369Z,2.00
2022-09-12T10:27:20.697Z,2.00
2022-09-12T10:29:50.397Z,1.75
2022-09-12T10:32:31.274Z,2.30
2022-09-12T10:35:03.302Z,2.40
2022-09-12T10:37:36.008Z,2.70
2022-09-12T10:40:05.653Z,2.90
2022-09-12T10:42:49.994Z,2.75
2022-09-12T10:45:25.465Z,2.65
2022-09-12T10:47:53.973Z,2.42
2022-09-12T10:50:23.062Z,2.90
2022-09-12T10:52:51.753Z,2.83
2022-09-12T10:55:21.466Z,2.70
2022-09-12T10:58:14.471Z,2.80
2022-09-12T11:00:49.476Z,2.53
2022-09-12T11:03:25.437Z,3.03
2022-09-12T11:05:58.288Z,2.33
2022-09-12T11:08:54.205Z,2.17
2022-09-12T11:11:57.392Z,2.53
2022-09-12T11:14:27.764Z,2.30
2022-09-12T11:17:18.819Z,2.92
2022-09-12T11:20:04.587Z,2.23
2022-09-12T11:22:37.069Z,2.72
2022-09-12T11:25:42.528Z,2.15
2022-09-12T11:28:26.120Z,2.70
2022-09-12T11:31:05.811Z,2.70
2022-09-12T11:33:43.569Z,2.67
2022-09-12T11:36:32.385Z,2.47
2022-09-12T11:39:16.740Z,2.47
2022-09-12T11:41:48.605Z,2.58
2022-09-12T11:44:18.470Z,2.70
2022-09-12T11:46:51.745Z,2.47
2022-09-12T11:49:42.766Z,2.70
2022-09-12T11:52:20.515Z,2.90
2022-09-12T11:54:58.627Z,2.58
2022-09-12T11:57:44.577Z,2.80
2022-09-12T12:00:18.475Z,2.60
2022-09-12T12:03:18.671Z,2.45
2022-09-12T12:05:55.405Z,2.38
2022-09-12T12:08:23.746Z,2.30
2022-09-12T12:11:02.171Z,2.40
2022-09-12T12:13:32.356Z,2.63
2022-09-12T12:16:04.313Z,2.05
2022-09-12T12:18:32.857Z,2.97
2022-09-12T12:21:32.228Z,2.70
2022-09-12T12:24:09.044Z,2.20
2022-09-12T12:26:39.792Z,2.43
2022-09-12T12:29:21.827Z,2.10
2022-09-12T12:32:04.352Z,2.63
2022-09-12T12:34:42.508Z,2.20
2022-09-12T12:37:19.132Z,2.70
2022-09-12T12:39:54.066Z,2.00
2022-09-12T12:42:54.415Z,2.30
2022-09-12T12:45:27.948Z,2.25
2022-09-12T12:48:14.907Z,2.10
2022-09-12T12:50:43.224Z,2.17
2022-09-12T12:53:24.959Z,1.90
2022-09-12T12:55:53.147Z,1.70
2022-09-12T12:58:36.581Z,2.00
2022-09-12T13:01:10.168Z,2.20
2022-09-12T13:03:38.473Z,1.70
2022-09-12T13:06:07.375Z,1.77
2022-09-12T13:08:39.848Z,2.38
2022-09-12T13:11:07.426Z,2.20
2022-09-12T13:13:53.103Z,2.20
2022-09-12T13:16:40.619Z,2.10
2022-09-12T13:19:18.408Z,2.53
2022-09-12T13:22:08.930Z,1.90
2022-09-12T13:24:44.965Z,2.15
2022-09-12T13:27:24.199Z,1.80
2022-09-12T13:30:18.702Z,2.13
2022-09-12T13:32:48.277Z,1.77
2022-09-12T13:35:21.916Z,2.20
2022-09-12T13:37:54.813Z,2.22
2022-09-12T13:40:34.821Z,1.90
2022-09-12T13:43:09.388Z,1.92
2022-09-12T13:45:38.764Z,1.90
2022-09-12T13:48:06.736Z,1.80
2022-09-12T13:50:57.857Z,1.80
2022-09-12T13:53:26.919Z,1.90
2022-09-12T13:55:56.874Z,1.92
2022-09-12T13:58:34.688Z,1.90
2022-09-12T14:01:08.603Z,1.98
2022-09-12T14:04:13.295Z,1.73
2022-09-12T14:06:51.828Z,1.75
2022-09-12T14:09:25.279Z,1.83
2022-09-12T14:11:53.067Z,1.70
2022-09-12T14:14:23.012Z,2.00
2022-09-12T14:16:50.433Z,1.75
2022-09-12T14:19:26.301Z,1.63
2022-09-12T14:21:54.129Z,1.77
2022-09-12T14:24:23.457Z,1.53
2022-09-12T14:26:57.393Z,1.60
2022-09-12T14:29:25.494Z,2.13
2022-09-12T14:32:03.540Z,1.70
2022-09-12T14:34:31.539Z,1.88
2022-09-12T14:36:58.820Z,1.60
2022-09-12T14:39:34.011Z,1.73
2022-09-12T14:42:08.285Z,1.90
2022-09-12T14:44:35.908Z,1.70
2022-09-12T14:47:20.896Z,1.80
2022-09-12T14:49:51.805Z,1.87
2022-09-12T14:52:26.840Z,1.80
2022-09-12T14:55:01.033Z,1.80
2022-09-12T14:57:28.364Z,1.65
2022-09-12T15:00:06.389Z,1.63
2022-09-12T15:02:34.542Z,1.87
2022-09-12T15:05:04.968Z,1.60
2022-09-12T15:07:37.069Z,2.00
2022-09-12T15:10:22.960Z,1.70
2022-09-12T15:12:50.506Z,1.55
2022-09-12T15:15:19.538Z,1.60
2022-09-12T15:17:47.034Z,1.88
2022-09-12T15:20:15.016Z,1.80
2022-09-12T15:22:43.009Z,1.70
2022-09-12T15:25:10.638Z,1.67
2022-09-12T15:27:41.168Z,2.03
2022-09-12T15:30:10.418Z,1.80
2022-09-12T15:32:38.109Z,1.77
2022-09-12T15:35:20.697Z,1.70
2022-09-12T15:37:48.320Z,1.70
2022-09-12T15:40:15.880Z,1.40
2022-09-12T15:42:43.983Z,1.60
2022-09-12T15:45:17.882Z,1.73
2022-09-12T15:47:45.633Z,1.80
2022-09-12T15:50:13.483Z,1.92
2022-09-12T15:52:41.713Z,1.60
2022-09-12T15:55:20.166Z,1.75
2022-09-12T15:57:48.013Z,1.67
2022-09-12T16:00:16.125Z,1.60
2022-09-12T16:02:44.856Z,1.58
2022-09-12T16:05:20.897Z,1.43
2022-09-12T16:07:49.435Z,1.90
2022-09-12T16:10:18.370Z,1.75
2022-09-12T16:12:46.497Z,1.55
2022-09-12T16:15:15.661Z,1.90
2022-09-12T16:17:46.856Z,1.70
2022-09-12T16:20:14.671Z,1.67
2022-09-12T16:22:45.423Z,1.50
2022-09-12T16:25:13.014Z,1.80
2022-09-12T16:27:40.988Z,2.10
2022-09-12T16:30:09.348Z,1.67
2022-09-12T16:32:36.641Z,1.70
2022-09-12T16:35:04.574Z,1.90
2022-09-12T16:37:34.751Z,1.77
2022-09-12T16:40:03.892Z,1.90
2022-09-12T16:42:31.785Z,1.90
2022-09-12T16:44:59.233Z,1.90
2022-09-12T16:47:26.939Z,1.88
2022-09-12T16:49:54.379Z,1.88
2022-09-12T16:52:21.976Z,2.08
2022-09-12T16:54:49.492Z,1.73
2022-09-12T16:57:17.115Z,1.80
2022-09-12T16:59:45.175Z,1.90
2022-09-12T17:02:13.702Z,1.88
2022-09-12T17:04:41.621Z,1.80
2022-09-12T17:07:09.234Z,2.00
2022-09-12T17:09:36.795Z,2.03
2022-09-12T17:12:04.712Z,2.17
2022-09-12T17:14:32.113Z,2.00
2022-09-12T17:16:59.447Z,2.08
2022-09-12T17:19:28.261Z,1.90
2022-09-12T17:21:56.735Z,2.10
2022-09-12T17:24:24.966Z,2.25
2022-09-12T17:26:52.451Z,2.50
2022-09-12T17:29:20.132Z,2.40
2022-09-12T17:31:47.376Z,2.30
2022-09-12T17:34:15.252Z,2.20
2022-09-12T17:36:45.680Z,2.22
2022-09-12T17:39:13.174Z,2.45
2022-09-12T17:41:41.826Z,2.58
2022-09-12T17:44:11.110Z,2.60
2022-09-12T17:46:38.742Z,2.35
2022-09-12T17:49:08.933Z,2.88
2022-09-12T17:51:36.292Z,2.25
2022-09-12T17:54:08.704Z,2.42
2022-09-12T17:56:37.109Z,2.30
2022-09-12T17:59:04.700Z,2.30
2022-09-12T18:01:51.185Z,2.40
2022-09-12T18:04:19.993Z,2.60
2022-09-12T18:06:50.309Z,2.30
2022-09-12T18:09:19.688Z,2.60
2022-09-12T18:11:48.257Z,2.30
2022-09-12T18:14:15.908Z,2.60
2022-09-12T18:16:43.394Z,2.60
2022-09-12T18:19:11.077Z,2.83
2022-09-12T18:21:38.469Z,2.23
2022-09-12T18:24:06.089Z,2.45
2022-09-12T18:26:33.404Z,2.42
2022-09-12T18:29:00.779Z,2.42
2022-09-12T18:31:29.149Z,2.38
2022-09-12T18:33:56.762Z,2.47
2022-09-12T18:36:24.196Z,2.10
2022-09-12T18:38:51.524Z,2.40
2022-09-12T18:41:20.416Z,2.53
2022-09-12T18:43:48.191Z,2.45
2022-09-12T18:46:18.934Z,2.40
2022-09-12T18:48:46.472Z,2.80
2022-09-12T18:51:21.554Z,2.88
2022-09-12T18:53:53.699Z,2.45
2022-09-12T18:56:21.362Z,3.15
2022-09-12T18:58:53.185Z,2.57
2022-09-12T19:01:24.926Z,2.90
2022-09-12T19:03:52.690Z,2.35
2022-09-12T19:06:23.745Z,2.40
2022-09-12T19:08:51.358Z,2.80
2022-09-12T19:11:18.758Z,2.40
2022-09-12T19:13:46.977Z,2.70
2022-09-12T19:16:16.027Z,2.65
2022-09-12T19:18:43.638Z,2.58
2022-09-12T19:21:15.336Z,3.00
2022-09-12T19:23:42.682Z,2.60
2022-09-12T19:26:11.009Z,2.53
2022-09-12T19:28:38.260Z,2.70
2022-09-12T19:31:06.697Z,2.80
2022-09-12T19:33:34.214Z,2.75
2022-09-12T19:36:03.368Z,2.63
2022-09-12T19:38:30.745Z,2.90
2022-09-12T19:40:58.757Z,3.00
2022-09-12T19:43:26.253Z,3.30
2022-09-12T19:45:54.793Z,3.00
2022-09-12T19:48:22.181Z,2.80
2022-09-12T19:50:49.512Z,3.40
2022-09-12T19:53:17.216Z,3.00
2022-09-12T19:55:45.277Z,3.15
2022-09-12T19:58:13.431Z,2.85
2022-09-12T20:00:40.915Z,2.87
2022-09-12T20:03:08.694Z,3.10
2022-09-12T20:05:39.540Z,3.53
2022-09-12T20:08:09.901Z,3.00
2022-09-12T20:10:37.412Z,3.03
2022-09-12T20:13:05.478Z,3.13
2022-09-12T20:15:32.789Z,2.80
2022-09-12T20:18:00.047Z,3.33
2022-09-12T20:20:27.639Z,3.65
2022-09-12T20:22:54.936Z,3.42
2022-09-12T20:25:22.182Z,3.33
2022-09-12T20:27:49.527Z,3.60
2022-09-12T20:30:17.148Z,3.17
2022-09-12T20:32:44.389Z,2.97
2022-09-12T20:35:11.660Z,2.97
2022-09-12T20:37:40.545Z,2.90
2022-09-12T20:40:08.570Z,2.90
2022-09-12T20:42:36.090Z,3.40
2022-09-12T20:45:04.563Z,3.10
2022-09-12T20:47:31.883Z,3.33
2022-09-12T20:49:59.158Z,3.17
2022-09-12T20:52:26.458Z,3.10
2022-09-12T20:54:53.674Z,3.25
2022-09-12T20:57:20.942Z,3.00
2022-09-12T20:59:48.165Z,3.15
2022-09-12T21:02:15.718Z,2.87
2022-09-12T21:04:43.159Z,3.15
2022-09-12T21:07:10.581Z,2.90
2022-09-12T21:09:37.789Z,3.42
2022-09-12T21:12:05.385Z,3.10
2022-09-12T21:14:32.690Z,3.37
2022-09-12T21:17:00.007Z,3.00
2022-09-12T21:19:27.303Z,3.50
2022-09-12T21:21:54.636Z,2.80
2022-09-12T21:24:21.847Z,3.15
2022-09-12T21:26:49.049Z,3.03
2022-09-12T21:29:16.489Z,2.83
2022-09-12T21:31:44.097Z,3.28
2022-09-12T21:34:11.307Z,3.00
2022-09-12T21:36:38.775Z,2.53
2022-09-12T21:39:06.078Z,3.20
2022-09-12T21:41:33.503Z,2.88
2022-09-12T21:44:00.881Z,3.00
2022-09-12T21:46:28.247Z,3.20
2022-09-12T21:48:55.540Z,3.72
2022-09-12T21:51:23.037Z,2.73
2022-09-12T21:53:50.349Z,2.92
2022-09-12T21:56:17.593Z,2.85
2022-09-12T21:58:45.141Z,3.03
2022-09-12T22:01:12.713Z,2.90
2022-09-12T22:03:40.370Z,3.17
2022-09-12T22:06:07.950Z,2.75
2022-09-12T22:08:35.497Z,2.88
2022-09-12T22:11:04.687Z,3.00
2022-09-12T22:13:32.375Z,3.13
2022-09-12T22:16:01.418Z,2.73
2022-09-12T22:18:29.675Z,3.00
2022-09-12T22:21:05.371Z,3.13
2022-09-12T22:23:51.327Z,2.83
2022-09-12T22:26:18.694Z,2.92
2022-09-12T22:28:47.290Z,3.23
2022-09-12T22:31:14.932Z,2.63
2022-09-12T22:33:42.310Z,2.80
2022-09-12T22:36:10.122Z,3.20
2022-09-12T22:38:37.417Z,2.97
2022-09-12T22:41:06.145Z,2.70
2022-09-12T22:43:34.089Z,2.88
2022-09-12T22:46:01.646Z,2.83
2022-09-12T22:48:28.893Z,3.20
2022-09-12T22:50:56.151Z,2.50
2022-09-12T22:53:23.406Z,3.00
2022-09-12T22:55:50.761Z,2.78
2022-09-12T22:58:18.111Z,3.05
2022-09-12T23:00:50.214Z,2.55
2022-09-12T23:03:18.178Z,2.80
2022-09-12T23:05:46.738Z,2.87
2022-09-12T23:08:14.970Z,3.00
2022-09-12T23:10:42.440Z,3.15
2022-09-12T23:13:09.956Z,3.08
2022-09-12T23:15:37.285Z,2.63
2022-09-12T23:18:05.220Z,3.00
2022-09-12T23:20:32.658Z,2.70
2022-09-12T23:23:00.116Z,2.90
2022-09-12T23:25:27.521Z,2.90
2022-09-12T23:27:54.813Z,2.88
2022-09-12T23:30:21.987Z,3.03
2022-09-12T23:32:49.360Z,2.70
2022-09-12T23:35:19.461Z,3.08
2022-09-12T23:37:47.311Z,2.75
2022-09-12T23:40:14.597Z,2.65
2022-09-12T23:42:41.946Z,2.80
2022-09-12T23:45:10.387Z,3.10
2022-09-12T23:47:37.687Z,3.03
2022-09-12T23:50:05.179Z,2.80
2022-09-12T23:52:32.434Z,3.20
2022-09-12T23:54:59.834Z,2.80
2022-09-12T23:57:27.149Z,3.10
2022-09-12T23:59:54.308Z,3.25
